createdAt,value
2019-02-16T00:00:43.031Z,7.30
2019-02-16T00:02:15.494Z,7.20
2019-02-16T00:03:48.085Z,7.20
2019-02-16T00:05:20.533Z,7.20
2019-02-16T00:06:53.015Z,7.20
2019-02-16T00:08:25.425Z,7.10
2019-02-16T00:09:57.831Z,7.10
2019-02-16T00:11:30.162Z,7.10
2019-02-16T00:13:02.487Z,7.00
2019-02-16T00:14:34.905Z,7.00
2019-02-16T00:16:07.323Z,7.00
2019-02-16T00:17:39.724Z,7.00
2019-02-16T00:19:12.196Z,6.90
2019-02-16T00:20:44.678Z,6.90
2019-02-16T00:22:17.005Z,6.90
2019-02-16T00:23:49.398Z,6.90
2019-02-16T00:25:21.821Z,6.90
2019-02-16T00:26:54.147Z,6.90
2019-02-16T00:28:26.542Z,6.90
2019-02-16T00:29:58.862Z,6.80
2019-02-16T00:31:31.213Z,6.80
2019-02-16T00:33:03.615Z,6.80
2019-02-16T00:34:36.075Z,6.80
2019-02-16T00:36:08.418Z,6.80
2019-02-16T00:37:40.883Z,6.80
2019-02-16T00:39:13.356Z,6.80
2019-02-16T00:40:45.681Z,6.70
2019-02-16T00:42:18.103Z,6.70
2019-02-16T00:43:50.582Z,6.70
2019-02-16T00:45:23.120Z,6.70
2019-02-16T00:46:55.604Z,6.70
2019-02-16T00:48:28.300Z,6.70
2019-02-16T00:50:00.705Z,6.70
2019-02-16T00:51:33.198Z,6.70
2019-02-16T00:53:05.683Z,6.70
2019-02-16T00:54:38.079Z,6.70
2019-02-16T00:56:10.407Z,6.70
2019-02-16T00:57:42.819Z,6.70
2019-02-16T00:59:15.138Z,6.60
2019-02-16T01:00:47.531Z,6.60
2019-02-16T01:02:20.029Z,6.60
2019-02-16T01:03:52.423Z,6.70
2019-02-16T01:05:24.815Z,6.60
2019-02-16T01:06:57.144Z,6.70
2019-02-16T01:08:29.490Z,6.60
2019-02-16T01:10:01.901Z,6.70
2019-02-16T01:11:34.351Z,6.70
2019-02-16T01:13:06.775Z,6.70
2019-02-16T01:14:39.174Z,6.70
2019-02-16T01:16:11.567Z,6.60
2019-02-16T01:17:43.919Z,6.60
2019-02-16T01:19:16.319Z,6.60
2019-02-16T01:20:48.711Z,6.60
2019-02-16T01:22:21.048Z,6.60
2019-02-16T01:23:53.834Z,6.60
2019-02-16T01:25:26.231Z,6.60
2019-02-16T01:26:58.626Z,6.50
2019-02-16T01:28:31.015Z,6.50
2019-02-16T01:30:03.426Z,6.50
2019-02-16T01:31:35.764Z,6.50
2019-02-16T01:33:08.236Z,6.40
2019-02-16T01:34:40.651Z,6.40
2019-02-16T01:36:12.988Z,6.40
2019-02-16T01:37:45.388Z,6.40
2019-02-16T01:39:17.883Z,6.30
2019-02-16T01:40:50.286Z,6.30
2019-02-16T01:42:22.706Z,6.30
2019-02-16T01:43:55.146Z,6.30
2019-02-16T01:45:27.490Z,6.20
2019-02-16T01:46:59.878Z,6.30
2019-02-16T01:48:32.276Z,6.20
2019-02-16T01:50:04.655Z,6.20
2019-02-16T01:51:37.129Z,6.20
2019-02-16T01:53:09.599Z,6.20
2019-02-16T01:54:41.928Z,6.20
2019-02-16T01:56:14.346Z,6.20
2019-02-16T01:57:46.739Z,6.10
2019-02-16T01:59:19.062Z,6.10
2019-02-16T02:00:51.474Z,6.10
2019-02-16T02:02:23.867Z,6.10
2019-02-16T02:03:56.198Z,6.10
2019-02-16T02:05:28.894Z,6.10
2019-02-16T02:07:01.313Z,6.00
2019-02-16T02:08:33.787Z,6.00
2019-02-16T02:10:06.182Z,6.00
2019-02-16T02:11:38.598Z,6.00
2019-02-16T02:13:10.927Z,6.00
2019-02-16T02:14:43.323Z,6.00
2019-02-16T02:16:15.733Z,6.00
2019-02-16T02:17:48.155Z,6.00
2019-02-16T02:19:20.564Z,6.00
2019-02-16T02:20:53.032Z,6.00
2019-02-16T02:22:25.727Z,6.00
2019-02-16T02:23:58.190Z,6.00
2019-02-16T02:25:30.535Z,6.00
2019-02-16T02:27:02.879Z,6.00
2019-02-16T02:28:35.282Z,6.00
2019-02-16T02:30:07.745Z,6.10
2019-02-16T02:31:40.153Z,6.00
2019-02-16T02:33:12.657Z,6.00
2019-02-16T02:34:45.044Z,6.00
2019-02-16T02:36:17.374Z,6.10
2019-02-16T02:37:49.791Z,6.00
2019-02-16T02:39:22.193Z,6.00
2019-02-16T02:40:54.595Z,6.00
2019-02-16T02:42:26.988Z,6.00
2019-02-16T02:43:59.486Z,6.00
2019-02-16T02:45:31.882Z,6.00
2019-02-16T02:47:04.292Z,6.00
2019-02-16T02:48:36.787Z,6.00
2019-02-16T02:50:09.205Z,6.00
2019-02-16T02:51:51.493Z,5.90
2019-02-16T02:53:15.805Z,5.90
2019-02-16T02:54:48.199Z,5.90
2019-02-16T02:56:20.610Z,5.90
2019-02-16T02:57:53.019Z,5.80
2019-02-16T02:59:25.372Z,5.80
2019-02-16T03:00:57.851Z,5.80
2019-02-16T03:02:30.317Z,5.80
2019-02-16T03:04:02.734Z,5.70
2019-02-16T03:05:35.217Z,5.70
2019-02-16T03:07:07.683Z,5.70
2019-02-16T03:08:40.087Z,5.70
2019-02-16T03:10:12.575Z,5.60
2019-02-16T03:11:44.971Z,5.60
2019-02-16T03:13:17.301Z,5.60
2019-02-16T03:14:49.728Z,5.60
2019-02-16T03:16:22.195Z,5.50
2019-02-16T03:17:54.527Z,5.50
2019-02-16T03:19:26.928Z,5.50
2019-02-16T03:20:59.348Z,5.40
2019-02-16T03:22:31.952Z,5.50
2019-02-16T03:24:04.435Z,5.40
2019-02-16T03:25:36.916Z,5.40
2019-02-16T03:27:09.313Z,5.50
2019-02-16T03:28:41.711Z,5.50
2019-02-16T03:30:14.196Z,5.50
2019-02-16T03:31:46.617Z,5.40
2019-02-16T03:33:19.280Z,5.40
2019-02-16T03:34:51.684Z,5.40
2019-02-16T03:36:24.025Z,5.40
2019-02-16T03:37:56.419Z,5.40
2019-02-16T03:39:28.817Z,5.40
2019-02-16T03:41:01.227Z,5.40
2019-02-16T03:42:33.721Z,5.30
2019-02-16T03:44:06.195Z,5.30
2019-02-16T03:45:38.594Z,5.30
2019-02-16T03:47:11.081Z,5.30
2019-02-16T03:48:43.475Z,5.20
2019-02-16T03:50:15.802Z,5.20
2019-02-16T03:51:48.206Z,5.20
2019-02-16T03:53:20.619Z,5.20
2019-02-16T03:54:52.943Z,5.20
2019-02-16T03:56:25.339Z,5.20
2019-02-16T03:57:57.773Z,5.20
2019-02-16T03:59:30.170Z,5.20
2019-02-16T04:01:02.496Z,5.10
2019-02-16T04:02:34.994Z,5.20
2019-02-16T04:04:07.399Z,5.20
2019-02-16T04:05:39.786Z,5.20
2019-02-16T04:07:12.202Z,5.20
2019-02-16T04:08:44.522Z,5.20
2019-02-16T04:10:16.927Z,5.20
2019-02-16T04:11:49.396Z,5.10
2019-02-16T04:13:21.751Z,5.10
2019-02-16T04:14:54.142Z,5.20
2019-02-16T04:16:26.466Z,5.20
2019-02-16T04:17:58.801Z,5.20
2019-02-16T04:19:31.202Z,5.10
2019-02-16T04:21:03.615Z,5.20
2019-02-16T04:22:36.033Z,5.20
2019-02-16T04:24:08.552Z,5.20
2019-02-16T04:25:40.973Z,5.20
2019-02-16T04:27:13.300Z,5.20
2019-02-16T04:28:45.709Z,5.20
2019-02-16T04:30:18.029Z,5.20
2019-02-16T04:31:50.436Z,5.20
2019-02-16T04:33:22.918Z,5.20
2019-02-16T04:34:55.334Z,5.20
2019-02-16T04:36:27.656Z,5.20
2019-02-16T04:37:59.983Z,5.20
2019-02-16T04:39:32.414Z,5.20
2019-02-16T04:41:04.810Z,5.30
2019-02-16T04:42:37.203Z,5.30
2019-02-16T04:44:09.616Z,5.30
2019-02-16T04:45:41.956Z,5.30
2019-02-16T04:47:14.285Z,5.30
2019-02-16T04:48:46.679Z,5.20
2019-02-16T04:50:19.027Z,5.20
2019-02-16T04:51:51.503Z,5.20
2019-02-16T04:53:23.969Z,5.20
2019-02-16T04:54:56.390Z,5.10
2019-02-16T04:56:28.879Z,5.10
2019-02-16T04:58:01.330Z,5.10
2019-02-16T04:59:33.736Z,5.10
2019-02-16T05:01:06.090Z,5.10
2019-02-16T05:02:38.487Z,5.10
2019-02-16T05:04:10.884Z,5.10
2019-02-16T05:05:43.300Z,5.10
2019-02-16T05:07:15.619Z,5.10
2019-02-16T05:08:47.952Z,5.10
2019-02-16T05:10:20.369Z,5.10
2019-02-16T05:11:52.763Z,5.10
2019-02-16T05:13:25.110Z,5.10
2019-02-16T05:14:57.558Z,5.00
2019-02-16T05:16:30.014Z,5.00
2019-02-16T05:18:02.343Z,4.90
2019-02-16T05:19:34.748Z,4.90
2019-02-16T05:21:07.160Z,4.90
2019-02-16T05:22:44.714Z,4.90
2019-02-16T05:24:13.599Z,4.80
2019-02-16T05:25:46.197Z,4.80
2019-02-16T05:27:18.612Z,4.80
2019-02-16T05:28:51.079Z,4.80
2019-02-16T05:30:23.490Z,4.80
2019-02-16T05:31:55.907Z,4.80
2019-02-16T05:33:28.298Z,4.80
2019-02-16T05:35:00.698Z,4.80
2019-02-16T05:36:33.112Z,4.80
2019-02-16T05:38:05.506Z,4.70
2019-02-16T05:39:37.973Z,4.70
2019-02-16T05:41:10.373Z,4.70
2019-02-16T05:42:42.780Z,4.70
2019-02-16T05:44:15.174Z,4.70
2019-02-16T05:45:47.584Z,4.70
2019-02-16T05:47:20.095Z,4.70
2019-02-16T05:48:52.579Z,4.70
2019-02-16T05:50:24.903Z,4.70
2019-02-16T05:51:57.305Z,4.70
2019-02-16T05:53:29.790Z,4.70
2019-02-16T05:55:02.122Z,4.70
2019-02-16T05:56:34.524Z,4.70
2019-02-16T05:58:07.011Z,4.70
2019-02-16T05:59:39.433Z,4.70
2019-02-16T06:01:11.903Z,4.70
2019-02-16T06:02:44.406Z,4.70
2019-02-16T06:04:16.799Z,4.70
2019-02-16T06:05:49.198Z,4.70
2019-02-16T06:07:21.596Z,4.70
2019-02-16T06:08:54.084Z,4.60
2019-02-16T06:10:26.475Z,4.60
2019-02-16T06:11:58.801Z,4.60
2019-02-16T06:13:31.220Z,4.60
2019-02-16T06:15:03.627Z,4.60
2019-02-16T06:16:35.960Z,4.60
2019-02-16T06:18:08.287Z,4.60
2019-02-16T06:19:40.699Z,4.50
2019-02-16T06:21:13.099Z,4.50
2019-02-16T06:22:45.491Z,4.50
2019-02-16T06:24:17.919Z,4.50
2019-02-16T06:25:50.340Z,4.50
2019-02-16T06:27:22.748Z,4.50
2019-02-16T06:28:55.093Z,4.50
2019-02-16T06:30:27.583Z,4.50
2019-02-16T06:31:59.911Z,4.50
2019-02-16T06:33:32.380Z,4.50
2019-02-16T06:35:04.863Z,4.50
2019-02-16T06:36:37.283Z,4.50
2019-02-16T06:38:09.773Z,4.60
2019-02-16T06:39:42.198Z,4.50
2019-02-16T06:41:14.622Z,4.60
2019-02-16T06:42:47.086Z,4.60
2019-02-16T06:44:19.479Z,4.60
2019-02-16T06:45:51.830Z,4.60
2019-02-16T06:47:24.228Z,4.70
2019-02-16T06:49:02.325Z,4.70
2019-02-16T06:50:36.910Z,4.70
2019-02-16T06:52:08.862Z,4.70
2019-02-16T06:53:41.243Z,4.70
2019-02-16T06:55:13.575Z,4.80
2019-02-16T06:56:46.013Z,4.70
2019-02-16T06:58:18.403Z,4.80
2019-02-16T06:59:50.727Z,4.80
2019-02-16T07:01:23.235Z,4.80
2019-02-16T07:02:55.632Z,4.80
2019-02-16T07:04:27.955Z,4.90
2019-02-16T07:06:00.459Z,4.80
2019-02-16T07:07:33.244Z,4.90
2019-02-16T07:09:05.652Z,4.90
2019-02-16T07:10:38.042Z,4.90
2019-02-16T07:12:10.459Z,4.90
2019-02-16T07:13:42.802Z,4.90
2019-02-16T07:15:15.262Z,4.90
2019-02-16T07:16:47.696Z,5.00
2019-02-16T07:18:20.039Z,5.00
2019-02-16T07:19:52.440Z,5.00
2019-02-16T07:21:24.902Z,5.00
2019-02-16T07:22:57.247Z,5.00
2019-02-16T07:24:29.644Z,5.00
2019-02-16T07:26:02.038Z,5.00
2019-02-16T07:27:34.464Z,5.00
2019-02-16T07:29:06.890Z,5.00
2019-02-16T07:30:39.211Z,5.00
2019-02-16T07:32:11.634Z,5.10
2019-02-16T07:33:44.143Z,5.10
2019-02-16T07:35:16.544Z,5.10
2019-02-16T07:36:48.947Z,5.10
2019-02-16T07:38:21.355Z,5.10
2019-02-16T07:39:53.818Z,5.10
2019-02-16T07:41:26.166Z,5.20
2019-02-16T07:42:58.653Z,5.20
2019-02-16T07:44:31.132Z,5.20
2019-02-16T07:46:03.479Z,5.20
2019-02-16T07:47:35.947Z,5.30
2019-02-16T07:49:08.379Z,5.30
2019-02-16T07:50:40.978Z,5.30
2019-02-16T07:52:13.391Z,5.30
2019-02-16T07:53:45.818Z,5.30
2019-02-16T07:55:18.163Z,5.30
2019-02-16T07:56:50.967Z,5.30
2019-02-16T07:58:23.362Z,5.30
2019-02-16T07:59:55.714Z,5.40
2019-02-16T08:01:28.183Z,5.40
2019-02-16T08:03:00.860Z,5.40
2019-02-16T08:04:33.183Z,5.40
2019-02-16T08:06:05.591Z,5.40
2019-02-16T08:07:40.068Z,5.50
2019-02-16T08:09:12.599Z,5.50
2019-02-16T08:10:45.049Z,5.50
2019-02-16T08:12:17.536Z,5.60
2019-02-16T08:13:50.064Z,5.60
2019-02-16T08:15:22.563Z,5.60
2019-02-16T08:16:55.043Z,5.70
2019-02-16T08:18:27.463Z,5.70
2019-02-16T08:20:00.160Z,5.70
2019-02-16T08:21:32.699Z,5.80
2019-02-16T08:23:05.188Z,5.80
2019-02-16T08:24:56.159Z,5.90
2019-02-16T08:26:47.348Z,5.90
2019-02-16T08:28:37.996Z,5.90
2019-02-16T08:30:12.407Z,6.00
2019-02-16T08:31:44.916Z,6.00
2019-02-16T08:33:17.399Z,6.10
2019-02-16T08:34:49.807Z,6.10
2019-02-16T08:36:22.314Z,6.10
2019-02-16T08:37:54.714Z,6.20
2019-02-16T08:39:27.047Z,6.20
2019-02-16T08:40:59.587Z,6.30
2019-02-16T08:42:32.017Z,6.30
2019-02-16T08:44:04.423Z,6.40
2019-02-16T08:45:37.021Z,6.50
2019-02-16T08:47:09.531Z,6.50
2019-02-16T08:48:41.943Z,6.60
2019-02-16T08:50:14.711Z,6.60
2019-02-16T08:51:47.164Z,6.70
2019-02-16T08:53:19.598Z,6.70
2019-02-16T08:54:52.048Z,6.80
2019-02-16T08:56:24.444Z,6.80
2019-02-16T08:57:56.872Z,6.90
2019-02-16T08:59:29.403Z,6.90
2019-02-16T09:01:01.874Z,7.00
2019-02-16T09:02:34.703Z,7.10
2019-02-16T09:04:07.264Z,7.10
2019-02-16T09:05:39.716Z,7.20
2019-02-16T09:07:12.277Z,7.20
2019-02-16T09:08:44.807Z,7.20
2019-02-16T09:12:09.810Z,7.40
2019-02-16T09:13:42.395Z,7.40
2019-02-16T09:15:14.867Z,7.50
2019-02-16T09:16:47.255Z,7.50
2019-02-16T09:18:19.703Z,7.60
2019-02-16T09:19:52.181Z,7.60
2019-02-16T09:21:24.592Z,7.70
2019-02-16T09:22:57.131Z,7.70
2019-02-16T09:24:29.637Z,7.80
2019-02-16T09:26:02.058Z,7.90
2019-02-16T09:27:34.539Z,7.90
2019-02-16T09:29:06.972Z,8.00
2019-02-16T09:30:39.451Z,8.10
2019-02-16T09:32:18.972Z,8.10
2019-02-16T09:33:50.055Z,8.20
2019-02-16T09:35:22.631Z,8.30
2019-02-16T09:36:55.098Z,8.30
2019-02-16T09:38:27.484Z,8.40
2019-02-16T09:40:00.015Z,8.40
2019-02-16T09:41:32.478Z,8.50
2019-02-16T09:43:04.955Z,8.60
2019-02-16T09:44:37.324Z,8.60
2019-02-16T09:46:09.719Z,8.70
2019-02-16T09:47:42.106Z,8.70
2019-02-16T09:49:14.454Z,8.80
2019-02-16T09:50:46.797Z,8.80
2019-02-16T09:52:19.195Z,8.90
2019-02-16T09:53:52.645Z,9.00
2019-02-16T09:55:25.161Z,9.00
2019-02-16T09:56:57.631Z,9.10
2019-02-16T09:58:30.033Z,9.20
2019-02-16T10:00:02.629Z,9.30
2019-02-16T10:01:35.127Z,9.30
2019-02-16T10:03:07.813Z,9.50
2019-02-16T10:04:40.373Z,9.60
2019-02-16T10:06:12.863Z,9.70
2019-02-16T10:07:45.263Z,9.80
2019-02-16T10:09:17.744Z,9.90
2019-02-16T10:10:50.251Z,10.10
2019-02-16T10:12:22.595Z,10.20
2019-02-16T10:13:54.997Z,10.20
2019-02-16T10:15:27.428Z,10.30
2019-02-16T10:16:59.803Z,10.40
2019-02-16T10:18:32.283Z,10.50
2019-02-16T10:20:04.774Z,10.50
2019-02-16T10:21:37.208Z,10.50
2019-02-16T10:23:09.686Z,10.60
2019-02-16T10:24:42.290Z,10.70
2019-02-16T10:26:14.727Z,10.70
2019-02-16T10:27:47.155Z,10.70
2019-02-16T10:29:19.635Z,10.80
2019-02-16T10:30:52.080Z,10.80
2019-02-16T10:32:24.694Z,10.90
2019-02-16T10:33:57.111Z,10.90
2019-02-16T10:35:29.525Z,11.00
2019-02-16T10:37:01.943Z,11.00
2019-02-16T10:38:34.424Z,11.10
2019-02-16T10:40:06.849Z,11.20
2019-02-16T10:41:39.400Z,11.20
2019-02-16T10:43:20.724Z,11.30
2019-02-16T10:44:53.130Z,11.30
2019-02-16T10:46:25.479Z,11.40
2019-02-16T10:47:57.975Z,11.40
2019-02-16T10:49:30.659Z,11.50
2019-02-16T10:51:03.055Z,11.50
2019-02-16T10:52:35.512Z,11.60
2019-02-16T10:54:08.062Z,11.70
2019-02-16T10:55:40.556Z,11.70
2019-02-16T10:57:13.031Z,11.80
2019-02-16T10:58:45.407Z,11.90
2019-02-16T11:00:17.896Z,11.90
2019-02-16T11:01:56.793Z,12.10
2019-02-16T11:03:32.666Z,12.10
2019-02-16T11:05:06.727Z,12.20
2019-02-16T11:06:39.206Z,12.30
2019-02-16T11:08:11.631Z,12.30
2019-02-16T11:09:44.154Z,12.40
2019-02-16T11:11:16.635Z,12.60
2019-02-16T11:12:49.167Z,12.70
2019-02-16T11:14:21.602Z,12.80
2019-02-16T11:15:54.072Z,12.90
2019-02-16T11:17:26.462Z,13.00
2019-02-16T11:18:59.297Z,13.10
2019-02-16T11:22:31.884Z,13.30
2019-02-16T11:24:04.382Z,13.60
2019-02-16T11:25:36.867Z,13.70
2019-02-16T11:27:09.283Z,13.80
2019-02-16T11:28:41.714Z,14.00
2019-02-16T11:30:14.227Z,14.10
2019-02-16T11:31:46.587Z,14.30
2019-02-16T11:33:19.026Z,14.40
2019-02-16T11:34:51.667Z,14.60
2019-02-16T11:36:24.047Z,14.80
2019-02-16T11:37:56.473Z,15.10
2019-02-16T11:39:28.931Z,15.40
2019-02-16T11:41:01.413Z,15.70
2019-02-16T11:42:33.892Z,16.10
2019-02-16T11:44:06.320Z,16.40
2019-02-16T11:45:38.723Z,16.80
2019-02-16T11:47:11.168Z,17.10
2019-02-16T11:48:43.652Z,17.50
2019-02-16T11:50:16.156Z,18.00
2019-02-16T11:51:48.588Z,18.60
2019-02-16T11:53:21.011Z,19.10
2019-02-16T11:54:53.548Z,19.60
2019-02-16T11:56:26.381Z,20.10
2019-02-16T11:57:58.798Z,20.50
2019-02-16T11:59:31.439Z,20.90
2019-02-16T12:01:03.947Z,21.30
2019-02-16T12:02:39.754Z,21.60
2019-02-16T12:04:10.484Z,21.80
2019-02-16T12:05:42.908Z,22.10
2019-02-16T12:07:15.396Z,22.20
2019-02-16T12:08:47.798Z,22.30
2019-02-16T12:10:20.220Z,22.30
2019-02-16T12:11:52.664Z,22.30
2019-02-16T12:13:25.146Z,22.20
2019-02-16T12:14:57.574Z,22.20
2019-02-16T12:16:30.168Z,22.10
2019-02-16T12:18:02.647Z,22.10
2019-02-16T12:19:34.996Z,22.10
2019-02-16T12:21:07.486Z,22.20
2019-02-16T12:22:39.883Z,22.20
2019-02-16T12:24:12.221Z,22.30
2019-02-16T12:25:44.692Z,22.30
2019-02-16T12:27:17.117Z,22.30
2019-02-16T12:28:49.450Z,22.30
2019-02-16T12:30:21.923Z,22.40
2019-02-16T12:31:54.335Z,22.60
2019-02-16T12:33:26.667Z,23.00
2019-02-16T12:34:59.066Z,23.70
2019-02-16T12:36:31.551Z,24.20
2019-02-16T12:38:03.884Z,24.70
2019-02-16T12:39:36.292Z,25.10
2019-02-16T12:41:08.696Z,25.40
2019-02-16T12:42:41.070Z,25.70
2019-02-16T12:44:13.467Z,25.80
2019-02-16T12:45:51.204Z,25.70
2019-02-16T12:47:19.850Z,25.40
2019-02-16T12:48:52.242Z,25.00
2019-02-16T12:50:24.642Z,24.70
2019-02-16T12:51:56.986Z,24.50
2019-02-16T12:53:29.414Z,24.50
2019-02-16T12:55:02.112Z,24.40
2019-02-16T12:56:34.515Z,24.50
2019-02-16T12:58:06.983Z,24.80
2019-02-16T12:59:39.322Z,25.00
2019-02-16T13:01:11.795Z,25.20
2019-02-16T13:02:44.235Z,25.20
2019-02-16T13:04:17.847Z,25.20
2019-02-16T13:05:50.283Z,25.10
2019-02-16T13:07:22.683Z,25.00
2019-02-16T13:08:55.182Z,24.80
2019-02-16T13:10:27.602Z,24.70
2019-02-16T13:12:00.033Z,24.60
2019-02-16T13:13:32.504Z,24.50
2019-02-16T13:15:04.963Z,24.50
2019-02-16T13:16:37.439Z,24.50
2019-02-16T13:18:09.854Z,24.50
2019-02-16T13:19:42.287Z,24.60
2019-02-16T13:21:14.700Z,24.60
2019-02-16T13:22:47.188Z,24.60
2019-02-16T13:24:19.624Z,24.50
2019-02-16T13:25:52.139Z,24.40
2019-02-16T13:27:24.546Z,24.40
2019-02-16T13:28:56.886Z,24.40
2019-02-16T13:30:29.319Z,24.40
2019-02-16T13:32:01.672Z,24.50
2019-02-16T13:33:34.083Z,24.50
2019-02-16T13:35:06.503Z,24.50
2019-02-16T13:36:38.890Z,24.50
2019-02-16T13:38:11.223Z,24.40
2019-02-16T13:39:43.642Z,24.30
2019-02-16T13:41:16.076Z,24.30
2019-02-16T13:42:48.410Z,24.30
2019-02-16T13:44:20.882Z,24.20
2019-02-16T13:45:53.299Z,24.20
2019-02-16T13:47:25.627Z,24.30
2019-02-16T13:48:58.027Z,24.40
2019-02-16T13:50:30.358Z,24.40
2019-02-16T13:52:02.711Z,24.40
2019-02-16T13:53:35.111Z,24.40
2019-02-16T13:55:07.521Z,24.40
2019-02-16T13:56:39.953Z,24.40
2019-02-16T13:58:12.433Z,24.50
2019-02-16T13:59:44.817Z,24.80
2019-02-16T14:01:17.287Z,25.20
2019-02-16T14:02:49.696Z,25.50
2019-02-16T14:04:22.178Z,26.00
2019-02-16T14:05:54.578Z,26.40
2019-02-16T14:07:26.992Z,26.80
2019-02-16T14:08:59.391Z,27.10
2019-02-16T14:10:31.946Z,27.00
2019-02-16T14:12:04.794Z,26.70
2019-02-16T14:13:37.270Z,26.50
2019-02-16T14:15:09.691Z,26.30
2019-02-16T14:16:42.176Z,26.10
2019-02-16T14:18:14.655Z,25.80
2019-02-16T14:19:46.990Z,25.60
2019-02-16T14:21:19.404Z,25.50
2019-02-16T14:22:51.902Z,25.40
2019-02-16T14:24:24.231Z,25.20
2019-02-16T14:25:56.707Z,25.10
2019-02-16T14:27:29.055Z,24.80
2019-02-16T14:29:01.387Z,24.50
2019-02-16T14:30:33.818Z,24.10
2019-02-16T14:32:06.266Z,23.90
2019-02-16T14:33:38.619Z,23.70
2019-02-16T14:35:11.019Z,23.60
2019-02-16T14:36:43.423Z,23.40
2019-02-16T14:38:15.788Z,23.20
2019-02-16T14:39:48.219Z,23.10
2019-02-16T14:41:20.614Z,23.00
2019-02-16T14:42:52.956Z,22.80
2019-02-16T14:44:25.309Z,22.70
2019-02-16T14:45:57.802Z,22.60
2019-02-16T14:47:30.134Z,22.40
2019-02-16T14:49:02.478Z,22.30
2019-02-16T14:50:34.958Z,22.20
2019-02-16T14:52:07.294Z,22.10
2019-02-16T14:53:39.770Z,22.00
2019-02-16T14:55:12.199Z,21.80
2019-02-16T14:56:44.603Z,21.60
2019-02-16T14:58:17.074Z,21.40
2019-02-16T14:59:49.511Z,21.30
2019-02-16T15:01:21.938Z,21.30
2019-02-16T15:02:54.399Z,21.10
2019-02-16T15:04:26.742Z,21.10
2019-02-16T15:05:59.078Z,21.00
2019-02-16T15:07:31.480Z,21.00
2019-02-16T15:09:03.907Z,21.00
2019-02-16T15:10:36.267Z,20.90
2019-02-16T15:12:09.882Z,20.90
2019-02-16T15:13:42.470Z,20.80
2019-02-16T15:15:14.898Z,20.80
2019-02-16T15:16:47.296Z,20.80
2019-02-16T15:18:19.714Z,20.70
2019-02-16T15:19:52.114Z,20.70
2019-02-16T15:21:24.544Z,20.60
2019-02-16T15:22:56.943Z,20.60
2019-02-16T15:24:29.275Z,20.50
2019-02-16T15:26:01.703Z,20.40
2019-02-16T15:27:34.178Z,20.40
2019-02-16T15:29:06.514Z,20.30
2019-02-16T15:30:38.922Z,20.20
2019-02-16T15:32:11.271Z,20.10
2019-02-16T15:33:43.917Z,20.10
2019-02-16T15:35:16.603Z,20.10
2019-02-16T15:36:49.003Z,20.10
2019-02-16T15:38:21.380Z,20.10
2019-02-16T15:39:53.867Z,20.10
2019-02-16T15:41:26.296Z,20.10
2019-02-16T15:42:58.743Z,20.00
2019-02-16T15:44:31.224Z,20.00
2019-02-16T15:46:03.703Z,19.90
2019-02-16T15:47:36.079Z,19.90
2019-02-16T15:49:08.522Z,19.80
2019-02-16T15:50:41.026Z,19.70
2019-02-16T15:52:13.447Z,19.60
2019-02-16T15:53:46.177Z,19.50
2019-02-16T15:55:18.583Z,19.40
2019-02-16T15:56:51.090Z,19.30
2019-02-16T15:58:24.088Z,19.20
2019-02-16T15:59:56.560Z,19.10
2019-02-16T16:01:29.008Z,18.90
2019-02-16T16:03:01.572Z,18.80
2019-02-16T16:04:34.058Z,18.70
2019-02-16T16:06:06.441Z,18.50
2019-02-16T16:07:40.415Z,18.40
2019-02-16T16:09:12.927Z,18.20
2019-02-16T16:10:45.266Z,18.10
2019-02-16T16:12:17.797Z,18.00
2019-02-16T16:13:50.241Z,17.80
2019-02-16T16:15:23.007Z,17.70
2019-02-16T16:16:55.734Z,17.60
2019-02-16T16:18:28.477Z,17.50
2019-02-16T16:20:01.556Z,17.30
2019-02-16T16:21:34.542Z,17.20
2019-02-16T16:23:07.498Z,17.10
2019-02-16T16:24:40.048Z,17.10
2019-02-16T16:26:19.085Z,16.90
2019-02-16T16:27:46.982Z,16.90
2019-02-16T16:29:19.681Z,16.70
2019-02-16T16:30:52.827Z,16.70
2019-02-16T16:32:25.634Z,16.60
2019-02-16T16:33:58.139Z,16.50
2019-02-16T16:35:30.776Z,16.40
2019-02-16T16:37:05.311Z,16.40
2019-02-16T16:38:38.266Z,16.30
2019-02-16T16:40:10.810Z,16.20
2019-02-16T16:41:43.484Z,16.20
2019-02-16T16:43:15.965Z,16.10
2019-02-16T16:44:48.861Z,16.00
2019-02-16T16:46:21.363Z,16.00
2019-02-16T16:47:55.633Z,15.90
2019-02-16T16:49:28.210Z,15.90
2019-02-16T16:51:00.830Z,15.80
2019-02-16T16:52:33.340Z,15.80
2019-02-16T16:54:05.842Z,15.70
2019-02-16T16:55:38.350Z,15.60
2019-02-16T16:57:10.791Z,15.60
2019-02-16T16:58:43.222Z,15.60
2019-02-16T17:00:15.632Z,15.50
2019-02-16T17:01:47.978Z,15.50
2019-02-16T17:03:20.574Z,15.40
2019-02-16T17:04:52.974Z,15.30
2019-02-16T17:06:25.396Z,15.30
2019-02-16T17:07:57.866Z,15.30
2019-02-16T17:09:30.302Z,15.20
2019-02-16T17:11:02.659Z,15.20
2019-02-16T17:12:35.102Z,15.20
2019-02-16T17:14:07.703Z,15.10
2019-02-16T17:15:40.188Z,15.10
2019-02-16T17:17:12.675Z,15.00
2019-02-16T17:18:45.130Z,15.00
2019-02-16T17:20:17.467Z,15.00
2019-02-16T17:21:50.423Z,14.90
2019-02-16T17:23:22.934Z,14.90
2019-02-16T17:24:55.510Z,14.80
2019-02-16T17:26:27.959Z,14.80
2019-02-16T17:28:00.465Z,14.70
2019-02-16T17:29:32.791Z,14.70
2019-02-16T17:31:05.194Z,14.70
2019-02-16T17:32:37.691Z,14.60
2019-02-16T17:34:10.040Z,14.60
2019-02-16T17:35:42.597Z,14.50
2019-02-16T17:37:15.218Z,14.50
2019-02-16T17:38:47.808Z,14.40
2019-02-16T17:40:20.279Z,14.40
2019-02-16T17:41:52.689Z,14.40
2019-02-16T17:43:25.040Z,14.30
2019-02-16T17:44:57.374Z,14.30
2019-02-16T17:46:29.870Z,14.20
2019-02-16T17:48:02.235Z,14.20
2019-02-16T17:49:34.876Z,14.20
2019-02-16T17:51:07.518Z,14.10
2019-02-16T17:52:39.870Z,14.10
2019-02-16T17:54:12.283Z,14.10
2019-02-16T17:55:44.722Z,14.00
2019-02-16T17:57:17.062Z,13.90
2019-02-16T17:58:49.418Z,13.90
2019-02-16T18:00:21.752Z,13.90
2019-02-16T18:01:54.155Z,13.80
2019-02-16T18:03:26.946Z,13.80
2019-02-16T18:04:59.367Z,13.70
2019-02-16T18:06:31.699Z,13.70
2019-02-16T18:08:04.283Z,13.60
2019-02-16T18:09:36.942Z,13.60
2019-02-16T18:11:09.275Z,13.50
2019-02-16T18:12:41.775Z,13.50
2019-02-16T18:14:14.212Z,13.40
2019-02-16T18:15:46.560Z,13.40
2019-02-16T18:17:19.028Z,13.30
2019-02-16T18:18:51.512Z,13.30
2019-02-16T18:20:23.870Z,13.20
2019-02-16T18:21:56.278Z,13.20
2019-02-16T18:23:28.682Z,13.20
2019-02-16T18:25:01.047Z,13.10
2019-02-16T18:26:33.543Z,13.10
2019-02-16T18:28:06.030Z,13.00
2019-02-16T18:29:38.465Z,13.00
2019-02-16T18:31:10.890Z,13.00
2019-02-16T18:32:43.415Z,12.90
2019-02-16T18:34:15.798Z,12.90
2019-02-16T18:35:48.241Z,12.80
2019-02-16T18:37:20.710Z,12.80
2019-02-16T18:38:53.044Z,12.80
2019-02-16T18:40:25.506Z,12.80
2019-02-16T18:41:58.104Z,12.70
2019-02-16T18:43:30.505Z,12.70
2019-02-16T18:45:02.945Z,12.70
2019-02-16T18:46:35.387Z,12.60
2019-02-16T18:48:07.781Z,12.60
2019-02-16T18:49:40.267Z,12.60
2019-02-16T18:51:12.694Z,12.50
2019-02-16T18:52:45.101Z,12.50
2019-02-16T18:54:17.515Z,12.40
2019-02-16T18:55:49.948Z,12.40
2019-02-16T18:57:22.378Z,12.30
2019-02-16T18:58:54.829Z,12.30
2019-02-16T19:00:27.182Z,12.20
2019-02-16T19:01:59.594Z,12.20
2019-02-16T19:03:32.023Z,12.20
2019-02-16T19:05:04.478Z,12.20
2019-02-16T19:06:36.843Z,12.10
2019-02-16T19:08:09.328Z,12.10
2019-02-16T19:09:41.810Z,12.10
2019-02-16T19:11:14.281Z,12.00
2019-02-16T19:12:46.728Z,12.00
2019-02-16T19:14:19.183Z,12.00
2019-02-16T19:15:51.546Z,12.00
2019-02-16T19:17:23.974Z,11.90
2019-02-16T19:18:56.380Z,11.90
2019-02-16T19:20:32.091Z,11.90
2019-02-16T19:22:04.587Z,11.80
2019-02-16T19:23:36.998Z,11.80
2019-02-16T19:25:09.335Z,11.80
2019-02-16T19:26:41.687Z,11.80
2019-02-16T19:28:14.178Z,11.70
2019-02-16T19:29:46.511Z,11.70
2019-02-16T19:31:18.920Z,11.70
2019-02-16T19:32:51.411Z,11.70
2019-02-16T19:34:23.751Z,11.70
2019-02-16T19:35:56.153Z,11.70
2019-02-16T19:37:28.567Z,11.70
2019-02-16T19:39:00.928Z,11.60
2019-02-16T19:40:33.420Z,11.60
2019-02-16T19:42:05.814Z,11.60
2019-02-16T19:43:38.245Z,11.60
2019-02-16T19:45:10.715Z,11.60
2019-02-16T19:46:43.215Z,11.60
2019-02-16T19:48:16.842Z,11.50
2019-02-16T19:49:49.851Z,11.50
2019-02-16T19:51:22.204Z,11.50
2019-02-16T19:52:54.618Z,11.50
2019-02-16T19:54:27.019Z,11.40
2019-02-16T19:55:59.435Z,11.40
2019-02-16T19:57:31.766Z,11.40
2019-02-16T19:59:04.256Z,11.30
2019-02-16T20:00:36.650Z,11.30
2019-02-16T20:02:09.066Z,11.30
2019-02-16T20:03:41.573Z,11.20
2019-02-16T20:05:14.062Z,11.20
2019-02-16T20:06:46.469Z,11.20
2019-02-16T20:08:18.801Z,11.10
2019-02-16T20:09:51.294Z,11.10
2019-02-16T20:11:23.631Z,11.00
2019-02-16T20:12:56.182Z,11.00
2019-02-16T20:14:28.601Z,11.00
2019-02-16T20:16:01.306Z,11.00